Time;durP1;ratioP1;P1;durP2;ratioP2;P2;SDS_P1;SDS_P2;PMS_P1;PMS_P2;Temp;Humidity;BMP_temperature;BMP_pressure;BME280_temperature;BME280_humidity;BME280_pressure;Samples;Min_cycle;Max_cycle;Signal;HPM_P1;HPM_P2
2023/12/05 00:01:02;;;;;;;5.32;4.10;;;;;;;;;;5005583;28;20066;-47
2023/12/05 00:03:28;;;;;;;7.47;5.25;;;;;;;;;;4996988;28;20182;-48
2023/12/05 00:05:53;;;;;;;6.53;5.28;;;;;;;;;;5000705;28;20598;-45
2023/12/05 00:08:19;;;;;;;4.82;4.20;;;;;;;;;;5024217;28;20037;-47
2023/12/05 00:10:44;;;;;;;4.82;4.38;;;;;;;;;;5003771;28;20084;-48
2023/12/05 00:13:10;;;;;;;5.15;4.18;;;;;;;;;;4999811;28;20026;-49
2023/12/05 00:15:36;;;;;;;4.32;3.88;;;;;;;;;;5005014;28;20066;-48
2023/12/05 00:18:01;;;;;;;5.50;3.80;;;;;;;;;;5011612;28;20045;-49
2023/12/05 00:20:27;;;;;;;5.72;4.20;;;;;;;;;;5000343;28;20455;-47
2023/12/05 00:22:52;;;;;;;7.50;6.80;;;;;;;;;;5009474;28;20384;-47
2023/12/05 00:25:18;;;;;;;4.55;4.15;;;;;;;;;;5001532;28;20404;-44
2023/12/05 00:27:44;;;;;;;4.13;3.58;;;;;;;;;;5005569;28;20025;-48
2023/12/05 00:30:09;;;;;;;5.68;4.43;;;;;;;;;;5002686;28;20049;-45
2023/12/05 00:32:35;;;;;;;5.82;5.07;;;;;;;;;;5005294;28;20026;-47
2023/12/05 00:35:00;;;;;;;4.35;3.95;;;;;;;;;;5010103;28;20038;-51
2023/12/05 00:37:26;;;;;;;4.22;3.80;;;;;;;;;;5011276;28;20054;-47
2023/12/05 00:39:51;;;;;;;6.45;4.05;;;;;;;;;;5010986;28;20021;-50
2023/12/05 00:42:16;;;;;;;5.25;3.97;;;;;;;;;;5013798;28;20460;-48
2023/12/05 00:44:42;;;;;;;3.95;3.17;;;;;;;;;;5006588;28;20085;-48
2023/12/05 00:47:07;;;;;;;3.88;3.00;;;;;;;;;;5014602;28;20030;-48
2023/12/05 00:49:34;;;;;;;4.45;3.85;;;;;;;;;;5004613;28;20022;-47
2023/12/05 00:51:59;;;;;;;4.07;3.67;;;;;;;;;;5007664;28;20373;-45
2023/12/05 00:54:25;;;;;;;3.67;2.63;;;;;;;;;;5009411;28;20061;-48
2023/12/05 00:56:50;;;;;;;4.18;3.35;;;;;;;;;;5000484;28;20535;-49
2023/12/05 00:59:17;;;;;;;4.20;3.40;;;;;;;;;;5000722;28;20172;-50
2023/12/05 01:01:42;;;;;;;3.25;2.88;;;;;;;;;;4991977;28;20559;-44
2023/12/05 01:04:07;;;;;;;4.28;3.88;;;;;;;;;;5004972;28;20065;-46
2023/12/05 01:06:33;;;;;;;11.73;8.35;;;;;;;;;;5004986;28;20130;-45
2023/12/05 01:08:58;;;;;;;9.73;7.43;;;;;;;;;;5011751;28;20026;-51
2023/12/05 01:11:23;;;;;;;6.65;4.78;;;;;;;;;;4999887;28;20050;-47
2023/12/05 01:13:49;;;;;;;5.05;3.53;;;;;;;;;;4997831;28;20487;-47
2023/12/05 01:16:14;;;;;;;8.02;6.28;;;;;;;;;;5003871;28;20050;-50
2023/12/05 01:18:40;;;;;;;5.93;5.20;;;;;;;;;;4996523;28;20030;-48
2023/12/05 01:21:05;;;;;;;5.07;3.47;;;;;;;;;;5005260;28;20049;-49
2023/12/05 01:23:31;;;;;;;4.25;3.40;;;;;;;;;;5004417;28;20026;-47
2023/12/05 01:25:56;;;;;;;6.80;6.28;;;;;;;;;;5004838;28;20715;-50
2023/12/05 01:28:21;;;;;;;4.13;2.92;;;;;;;;;;5008637;28;20021;-48
2023/12/05 01:30:47;;;;;;;2.78;2.38;;;;;;;;;;5006805;28;20058;-49
2023/12/05 01:33:12;;;;;;;3.92;3.53;;;;;;;;;;5002398;28;20030;-44
2023/12/05 01:35:38;;;;;;;4.05;3.75;;;;;;;;;;5007329;28;20073;-47
2023/12/05 01:38:03;;;;;;;4.15;3.13;;;;;;;;;;5002338;28;20029;-45
2023/12/05 01:40:29;;;;;;;3.92;3.20;;;;;;;;;;5006105;28;20038;-46
2023/12/05 01:42:54;;;;;;;3.13;2.53;;;;;;;;;;5001714;28;20031;-46
2023/12/05 01:45:19;;;;;;;4.32;3.55;;;;;;;;;;5013084;28;21670;-44
2023/12/05 01:47:45;;;;;;;3.20;2.40;;;;;;;;;;5006672;28;20487;-45
2023/12/05 01:50:24;;;;;;;2.90;2.63;;;;;;;;;;5009050;28;20030;-47
2023/12/05 01:52:53;;;;;;;4.25;2.60;;;;;;;;;;5001249;28;20026;-47
2023/12/05 01:55:19;;;;;;;4.65;3.00;;;;;;;;;;5013777;28;20463;-48
2023/12/05 01:57:48;;;;;;;4.00;3.40;;;;;;;;;;5011877;28;20177;-47
2023/12/05 02:00:15;;;;;;;3.60;2.80;;;;;;;;;;5007102;28;20093;-49
2023/12/05 02:02:41;;;;;;;4.32;3.50;;;;;;;;;;5014989;28;20085;-50
2023/12/05 02:05:07;;;;;;;4.05;2.17;;;;;;;;;;5009395;28;20069;-47
2023/12/05 02:07:34;;;;;;;4.07;2.75;;;;;;;;;;5008202;28;20044;-49
2023/12/05 02:09:59;;;;;;;2.92;2.22;;;;;;;;;;5014368;28;20061;-47
2023/12/05 02:12:25;;;;;;;3.53;2.38;;;;;;;;;;5002651;28;20460;-47
2023/12/05 02:14:51;;;;;;;4.00;2.58;;;;;;;;;;5010018;28;20029;-48
2023/12/05 02:17:16;;;;;;;3.22;2.55;;;;;;;;;;5003521;28;20030;-47
2023/12/05 02:19:56;;;;;;;3.78;3.45;;;;;;;;;;5009338;28;20057;-47
2023/12/05 02:23:00;;;;;;;5.07;3.38;;;;;;;;;;5012442;28;20033;-50
2023/12/05 02:25:58;;;;;;;5.60;5.10;;;;;;;;;;5003078;28;20125;-44
2023/12/05 02:28:24;;;;;;;3.67;3.35;;;;;;;;;;5006289;28;20539;-50
2023/12/05 02:30:50;;;;;;;3.58;3.25;;;;;;;;;;5008833;28;20041;-46
2023/12/05 02:33:16;;;;;;;3.17;2.85;;;;;;;;;;5013352;28;20448;-46
2023/12/05 02:35:42;;;;;;;4.63;3.42;;;;;;;;;;5002353;28;20070;-45
2023/12/05 02:38:24;;;;;;;3.50;2.55;;;;;;;;;;5007078;28;20030;-47
2023/12/05 02:41:14;;;;;;;3.05;2.30;;;;;;;;;;5007546;28;20643;-44
2023/12/05 02:43:49;;;;;;;4.32;4.03;;;;;;;;;;4992598;28;20396;-50
2023/12/05 02:46:19;;;;;;;2.05;1.60;;;;;;;;;;5001000;28;20039;-45
2023/12/05 02:48:45;;;;;;;3.28;2.70;;;;;;;;;;5012026;28;20013;-45
2023/12/05 02:51:11;;;;;;;4.30;3.03;;;;;;;;;;5009020;28;20052;-49
2023/12/05 02:53:37;;;;;;;4.38;3.58;;;;;;;;;;5001818;28;20030;-46
2023/12/05 02:56:03;;;;;;;4.63;2.67;;;;;;;;;;5007171;28;20042;-48
2023/12/05 02:58:29;;;;;;;2.63;2.20;;;;;;;;;;5006639;28;20083;-46
2023/12/05 03:00:54;;;;;;;6.72;3.92;;;;;;;;;;5008337;28;20084;-47
2023/12/05 03:03:19;;;;;;;7.28;3.88;;;;;;;;;;5007404;28;20029;-51
2023/12/05 03:05:45;;;;;;;4.95;3.70;;;;;;;;;;5010123;28;20038;-51
2023/12/05 03:08:10;;;;;;;4.63;3.00;;;;;;;;;;5007353;28;20026;-50
2023/12/05 03:10:36;;;;;;;3.95;3.40;;;;;;;;;;5006962;28;20034;-47
2023/12/05 03:13:01;;;;;;;3.50;3.20;;;;;;;;;;5005106;28;20113;-45
2023/12/05 03:15:27;;;;;;;2.83;2.25;;;;;;;;;;4998892;28;20049;-46
2023/12/05 03:17:52;;;;;;;3.63;3.28;;;;;;;;;;5008501;28;20435;-47
2023/12/05 03:20:17;;;;;;;4.03;3.40;;;;;;;;;;5008524;28;20493;-46
2023/12/05 03:22:44;;;;;;;4.88;3.45;;;;;;;;;;5004790;28;20433;-49
2023/12/05 03:25:09;;;;;;;2.78;2.40;;;;;;;;;;4998277;28;20031;-48
2023/12/05 03:27:35;;;;;;;3.58;3.05;;;;;;;;;;5008252;28;20514;-49
2023/12/05 03:30:00;;;;;;;4.35;4.05;;;;;;;;;;5006135;28;20393;-51
2023/12/05 03:32:26;;;;;;;3.65;2.67;;;;;;;;;;5004394;28;20523;-44
2023/12/05 03:34:51;;;;;;;3.30;2.75;;;;;;;;;;5012060;28;20018;-47
2023/12/05 03:37:17;;;;;;;4.32;3.97;;;;;;;;;;5004502;28;20036;-46
2023/12/05 03:39:42;;;;;;;3.55;2.85;;;;;;;;;;5006955;28;20021;-50
2023/12/05 03:42:08;;;;;;;4.18;3.70;;;;;;;;;;5012441;28;20050;-48
2023/12/05 03:44:33;;;;;;;4.57;3.80;;;;;;;;;;5002835;28;20029;-49
2023/12/05 03:46:58;;;;;;;3.95;3.55;;;;;;;;;;5013858;28;20099;-45
2023/12/05 03:49:24;;;;;;;6.80;6.13;;;;;;;;;;5000437;28;20023;-48
2023/12/05 03:51:49;;;;;;;3.88;3.40;;;;;;;;;;4999761;28;20519;-46
2023/12/05 03:54:14;;;;;;;4.43;4.03;;;;;;;;;;4993315;28;20525;-47
2023/12/05 03:56:40;;;;;;;4.07;3.75;;;;;;;;;;5007776;28;20048;-45
2023/12/05 03:59:06;;;;;;;5.22;3.53;;;;;;;;;;5009965;28;20032;-44
2023/12/05 04:01:31;;;;;;;4.18;3.78;;;;;;;;;;5008687;28;20038;-49
2023/12/05 04:03:56;;;;;;;5.88;2.95;;;;;;;;;;5009162;28;20030;-45
2023/12/05 04:06:23;;;;;;;3.70;2.97;;;;;;;;;;4997875;28;20100;-46
2023/12/05 04:08:49;;;;;;;4.43;4.13;;;;;;;;;;5002380;28;20384;-51
2023/12/05 04:11:15;;;;;;;3.20;2.90;;;;;;;;;;5010415;28;20081;-48
2023/12/05 04:13:40;;;;;;;4.82;2.72;;;;;;;;;;5005188;28;20041;-51
2023/12/05 04:16:06;;;;;;;4.25;3.85;;;;;;;;;;5001671;28;20697;-49
2023/12/05 04:18:31;;;;;;;4.18;3.83;;;;;;;;;;5008819;28;20596;-45
2023/12/05 04:20:57;;;;;;;3.22;2.92;;;;;;;;;;5010830;28;20042;-47
2023/12/05 04:23:22;;;;;;;3.83;2.50;;;;;;;;;;5007312;28;20022;-47
2023/12/05 04:25:48;;;;;;;3.85;3.13;;;;;;;;;;5005468;28;20049;-46
2023/12/05 04:28:13;;;;;;;3.47;3.15;;;;;;;;;;5008807;28;20091;-49
2023/12/05 04:30:39;;;;;;;5.10;3.63;;;;;;;;;;5000419;28;20066;-49
2023/12/05 04:33:04;;;;;;;3.80;3.47;;;;;;;;;;4996783;28;20029;-51
2023/12/05 04:35:29;;;;;;;5.28;4.03;;;;;;;;;;5001729;28;20045;-47
2023/12/05 04:37:55;;;;;;;5.13;4.28;;;;;;;;;;5005412;28;20034;-46
2023/12/05 04:40:20;;;;;;;5.22;4.65;;;;;;;;;;5009391;28;20045;-47
2023/12/05 04:42:46;;;;;;;8.32;4.05;;;;;;;;;;5001163;28;20089;-47
2023/12/05 04:45:11;;;;;;;5.03;4.00;;;;;;;;;;5013515;28;20119;-48
2023/12/05 04:47:37;;;;;;;5.47;3.83;;;;;;;;;;4995575;28;20097;-46
2023/12/05 04:50:02;;;;;;;9.75;4.60;;;;;;;;;;5004542;28;20030;-49
2023/12/05 04:52:28;;;;;;;7.47;4.75;;;;;;;;;;5002727;28;20492;-47
2023/12/05 04:54:53;;;;;;;7.15;5.03;;;;;;;;;;4998549;28;20018;-49
2023/12/05 04:57:19;;;;;;;10.73;7.75;;;;;;;;;;5001428;28;20018;-47
2023/12/05 04:59:44;;;;;;;10.07;8.13;;;;;;;;;;5005801;28;20037;-46
2023/12/05 05:02:13;;;;;;;8.38;5.93;;;;;;;;;;5004688;28;20038;-48
2023/12/05 05:04:38;;;;;;;9.43;8.15;;;;;;;;;;4999989;28;20029;-46
2023/12/05 05:07:04;;;;;;;9.48;7.15;;;;;;;;;;4999418;28;20038;-48
2023/12/05 05:09:30;;;;;;;7.97;7.28;;;;;;;;;;5005518;28;20045;-50
2023/12/05 05:11:56;;;;;;;8.48;6.18;;;;;;;;;;5004353;28;20125;-48
2023/12/05 05:14:21;;;;;;;7.13;5.93;;;;;;;;;;5002501;28;20069;-45
2023/12/05 05:16:47;;;;;;;6.07;5.47;;;;;;;;;;4998784;28;20505;-49
2023/12/05 05:19:12;;;;;;;6.70;5.95;;;;;;;;;;5012686;28;20656;-49
2023/12/05 05:21:37;;;;;;;6.65;5.35;;;;;;;;;;4999323;28;20058;-48
2023/12/05 05:24:03;;;;;;;4.82;4.43;;;;;;;;;;4990353;28;20034;-49
2023/12/05 05:26:28;;;;;;;6.18;4.57;;;;;;;;;;5000758;28;20034;-48
2023/12/05 05:28:54;;;;;;;5.25;4.47;;;;;;;;;;4995578;28;20034;-48
2023/12/05 05:31:19;;;;;;;6.95;6.25;;;;;;;;;;4998417;28;20038;-49
2023/12/05 05:33:45;;;;;;;6.80;6.10;;;;;;;;;;4998183;28;20022;-48
2023/12/05 05:36:12;;;;;;;6.45;5.85;;;;;;;;;;5000546;28;20038;-46
2023/12/05 05:38:38;;;;;;;7.63;5.78;;;;;;;;;;4998495;28;20030;-47
2023/12/05 05:41:05;;;;;;;7.07;6.38;;;;;;;;;;5001794;28;20045;-45
2023/12/05 05:43:30;;;;;;;6.63;5.82;;;;;;;;;;4998183;28;20431;-46
2023/12/05 05:45:56;;;;;;;7.18;5.70;;;;;;;;;;5006656;28;20117;-49
2023/12/05 05:48:21;;;;;;;8.20;7.13;;;;;;;;;;4996447;28;20030;-45
2023/12/05 05:50:47;;;;;;;7.45;6.57;;;;;;;;;;4997136;28;20030;-51
2023/12/05 05:53:12;;;;;;;9.30;7.65;;;;;;;;;;5001426;28;20030;-47
2023/12/05 05:55:37;;;;;;;10.88;8.57;;;;;;;;;;5010738;28;20085;-47
2023/12/05 05:58:03;;;;;;;10.00;8.93;;;;;;;;;;4998459;28;20034;-47
2023/12/05 06:00:28;;;;;;;10.13;7.97;;;;;;;;;;5003435;28;20041;-46
2023/12/05 06:02:54;;;;;;;10.10;7.30;;;;;;;;;;5004615;28;20164;-51
2023/12/05 06:05:19;;;;;;;10.15;8.15;;;;;;;;;;4988310;28;20100;-48
2023/12/05 06:07:44;;;;;;;8.20;6.20;;;;;;;;;;5006451;28;20472;-50
2023/12/05 06:10:10;;;;;;;8.45;7.75;;;;;;;;;;5000543;28;20104;-49
2023/12/05 06:12:35;;;;;;;9.80;7.18;;;;;;;;;;4999471;28;20034;-51
2023/12/05 06:15:00;;;;;;;10.43;7.95;;;;;;;;;;4998507;28;20042;-45
2023/12/05 06:17:26;;;;;;;13.25;8.80;;;;;;;;;;5010224;28;20034;-48
2023/12/05 06:19:51;;;;;;;6.25;5.65;;;;;;;;;;5005199;28;20049;-47
2023/12/05 06:22:17;;;;;;;8.20;6.05;;;;;;;;;;5008755;28;20045;-50
2023/12/05 06:24:42;;;;;;;7.47;4.60;;;;;;;;;;5008810;28;20057;-48
2023/12/05 06:27:07;;;;;;;6.07;4.47;;;;;;;;;;4990619;28;21947;-49
2023/12/05 06:29:33;;;;;;;6.72;4.55;;;;;;;;;;4992749;28;20491;-48
2023/12/05 06:31:58;;;;;;;7.07;5.50;;;;;;;;;;5010308;28;20575;-49
2023/12/05 06:34:24;;;;;;;5.15;3.50;;;;;;;;;;5008601;28;20052;-48
2023/12/05 06:36:50;;;;;;;4.70;2.78;;;;;;;;;;5006968;28;20041;-44
2023/12/05 06:39:15;;;;;;;3.70;2.30;;;;;;;;;;5007462;28;20030;-46
2023/12/05 06:41:41;;;;;;;3.08;2.30;;;;;;;;;;5010318;28;20069;-49
2023/12/05 06:44:06;;;;;;;5.60;2.53;;;;;;;;;;5006641;28;20039;-49
2023/12/05 06:46:32;;;;;;;3.78;2.58;;;;;;;;;;5007768;28;20046;-47
2023/12/05 06:48:58;;;;;;;5.38;1.92;;;;;;;;;;5009647;28;20094;-45
2023/12/05 06:51:24;;;;;;;4.68;2.75;;;;;;;;;;5003579;28;20038;-50
2023/12/05 06:53:49;;;;;;;5.25;2.10;;;;;;;;;;5003039;28;20037;-47
2023/12/05 06:56:16;;;;;;;2.45;2.17;;;;;;;;;;5015241;28;20401;-49
2023/12/05 06:58:41;;;;;;;3.70;1.75;;;;;;;;;;5006812;28;20022;-46
2023/12/05 07:01:08;;;;;;;6.43;1.85;;;;;;;;;;5008758;28;20117;-49
2023/12/05 07:03:33;;;;;;;4.60;1.55;;;;;;;;;;5010277;28;20089;-44
2023/12/05 07:05:59;;;;;;;2.67;1.73;;;;;;;;;;5009409;28;20037;-44
2023/12/05 07:08:24;;;;;;;3.58;2.25;;;;;;;;;;5009696;28;20100;-46
2023/12/05 07:10:50;;;;;;;7.13;2.17;;;;;;;;;;5003795;28;20136;-48
2023/12/05 07:13:15;;;;;;;3.67;3.03;;;;;;;;;;5008457;28;20026;-47
2023/12/05 07:15:41;;;;;;;6.80;3.58;;;;;;;;;;5013562;28;20049;-48
2023/12/05 07:18:08;;;;;;;4.70;2.78;;;;;;;;;;5010258;28;20088;-50
2023/12/05 07:20:33;;;;;;;5.20;2.78;;;;;;;;;;5004051;28;20042;-48
2023/12/05 07:22:59;;;;;;;7.65;4.72;;;;;;;;;;5005858;28;20388;-48
2023/12/05 07:25:24;;;;;;;6.78;3.58;;;;;;;;;;5006262;28;20042;-47
2023/12/05 07:27:50;;;;;;;3.72;2.33;;;;;;;;;;5009611;28;20018;-45
2023/12/05 07:30:15;;;;;;;5.57;2.67;;;;;;;;;;4998189;28;20464;-45
2023/12/05 07:32:41;;;;;;;4.88;2.80;;;;;;;;;;5005480;28;20637;-50
2023/12/05 07:35:07;;;;;;;4.43;3.88;;;;;;;;;;5001943;28;20041;-47
2023/12/05 07:37:32;;;;;;;6.05;4.78;;;;;;;;;;4999776;28;20025;-48
2023/12/05 07:39:58;;;;;;;5.70;3.22;;;;;;;;;;5010493;28;20038;-48
2023/12/05 07:42:23;;;;;;;4.32;3.30;;;;;;;;;;5010925;28;20046;-50
2023/12/05 07:44:48;;;;;;;4.20;2.70;;;;;;;;;;5008469;28;20036;-48
2023/12/05 07:47:14;;;;;;;3.72;2.40;;;;;;;;;;5011470;28;20030;-48
2023/12/05 07:49:44;;;;;;;5.93;2.25;;;;;;;;;;5007646;28;20077;-49
2023/12/05 07:52:09;;;;;;;5.38;2.45;;;;;;;;;;5010349;28;20038;-47
2023/12/05 07:54:35;;;;;;;5.78;2.45;;;;;;;;;;5004693;28;20030;-47
2023/12/05 07:57:00;;;;;;;7.15;2.50;;;;;;;;;;5008008;28;20041;-46
2023/12/05 07:59:25;;;;;;;4.20;2.92;;;;;;;;;;5002819;28;20444;-48
2023/12/05 08:01:51;;;;;;;6.18;2.35;;;;;;;;;;5004359;28;20042;-50
2023/12/05 08:04:16;;;;;;;5.22;3.65;;;;;;;;;;5002551;28;20568;-49
2023/12/05 08:06:42;;;;;;;5.32;3.08;;;;;;;;;;5008093;28;20034;-47
2023/12/05 08:09:07;;;;;;;4.82;3.33;;;;;;;;;;4999621;28;20121;-51
2023/12/05 08:11:32;;;;;;;4.97;2.03;;;;;;;;;;5003481;28;20036;-45
2023/12/05 08:13:58;;;;;;;7.75;2.33;;;;;;;;;;5009472;28;20026;-50
2023/12/05 08:16:23;;;;;;;5.32;2.05;;;;;;;;;;4982926;28;20039;-46
2023/12/05 08:18:48;;;;;;;1.92;1.73;;;;;;;;;;5001031;28;20030;-46
2023/12/05 08:21:14;;;;;;;4.68;1.92;;;;;;;;;;5000684;28;20046;-45
2023/12/05 08:23:39;;;;;;;5.85;2.55;;;;;;;;;;4999521;28;20037;-48
2023/12/05 08:26:05;;;;;;;5.35;1.80;;;;;;;;;;5006237;28;20038;-49
2023/12/05 08:28:31;;;;;;;3.35;3.03;;;;;;;;;;5008784;28;20109;-47
2023/12/05 08:30:56;;;;;;;5.65;2.90;;;;;;;;;;5006627;28;20549;-51
2023/12/05 08:33:22;;;;;;;3.42;2.78;;;;;;;;;;5004562;28;20104;-48
2023/12/05 08:35:47;;;;;;;3.28;1.83;;;;;;;;;;5003119;28;20042;-49
2023/12/05 08:38:13;;;;;;;5.18;1.77;;;;;;;;;;5004893;28;20565;-47
2023/12/05 08:40:38;;;;;;;3.78;1.80;;;;;;;;;;5004933;28;20099;-45
2023/12/05 08:43:04;;;;;;;4.03;3.63;;;;;;;;;;5009028;28;20498;-49
2023/12/05 08:45:29;;;;;;;3.30;2.83;;;;;;;;;;5000370;28;20488;-46
2023/12/05 08:47:55;;;;;;;3.90;2.25;;;;;;;;;;5007675;28;20026;-47
2023/12/05 08:50:21;;;;;;;4.13;2.50;;;;;;;;;;5005941;28;20436;-48
2023/12/05 08:52:47;;;;;;;7.22;2.55;;;;;;;;;;5005501;28;20040;-49
2023/12/05 08:55:13;;;;;;;3.70;2.75;;;;;;;;;;4995877;28;20508;-46
2023/12/05 08:57:38;;;;;;;5.55;5.05;;;;;;;;;;5008354;28;20126;-46
2023/12/05 09:00:04;;;;;;;6.57;2.50;;;;;;;;;;5008876;28;20065;-51
2023/12/05 09:02:31;;;;;;;4.15;1.77;;;;;;;;;;5004455;28;20037;-51
2023/12/05 09:04:56;;;;;;;4.07;1.98;;;;;;;;;;5007393;28;20082;-47
2023/12/05 09:07:22;;;;;;;4.55;1.77;;;;;;;;;;5009855;28;20472;-49
2023/12/05 09:09:47;;;;;;;6.72;2.40;;;;;;;;;;5007730;28;20024;-48
2023/12/05 09:12:13;;;;;;;4.63;3.50;;;;;;;;;;4997760;28;20030;-50
2023/12/05 09:14:39;;;;;;;4.60;3.25;;;;;;;;;;4997854;28;20026;-49
2023/12/05 09:17:04;;;;;;;4.75;1.98;;;;;;;;;;5011862;28;20026;-48
2023/12/05 09:19:30;;;;;;;4.07;1.88;;;;;;;;;;5007373;28;20029;-50
2023/12/05 09:21:55;;;;;;;4.85;1.60;;;;;;;;;;5011134;28;20033;-48
2023/12/05 09:24:21;;;;;;;4.63;4.07;;;;;;;;;;5010302;28;20034;-49
2023/12/05 09:26:46;;;;;;;3.70;2.22;;;;;;;;;;4973567;28;20034;-50
2023/12/05 09:29:12;;;;;;;5.97;2.30;;;;;;;;;;5003926;28;20058;-45
2023/12/05 09:31:38;;;;;;;5.50;2.70;;;;;;;;;;5000871;28;20049;-46
2023/12/05 09:34:03;;;;;;;3.88;3.22;;;;;;;;;;4992652;28;20018;-47
2023/12/05 09:36:30;;;;;;;5.65;1.95;;;;;;;;;;4999524;28;20121;-49
2023/12/05 09:38:56;;;;;;;7.80;2.03;;;;;;;;;;5006201;28;20065;-49
2023/12/05 09:41:22;;;;;;;5.13;1.70;;;;;;;;;;5005637;28;20112;-48
2023/12/05 09:43:49;;;;;;;3.80;2.03;;;;;;;;;;5002909;28;20025;-47
2023/12/05 09:46:20;;;;;;;4.30;2.45;;;;;;;;;;5002604;28;20601;-50
2023/12/05 09:48:46;;;;;;;;;;;;;;;;;;5005408;28;20018;-50
2023/12/05 09:51:14;;;;;;;3.92;1.17;;;;;;;;;;5006507;28;19940;-48
2023/12/05 09:53:41;;;;;;;4.43;1.88;;;;;;;;;;5012373;28;20030;-50
2023/12/05 09:56:08;;;;;;;5.28;2.67;;;;;;;;;;5007885;28;20038;-52
2023/12/05 09:58:34;;;;;;;5.13;1.25;;;;;;;;;;5005217;28;20043;-46
2023/12/05 10:01:02;;;;;;;3.05;1.27;;;;;;;;;;4991035;28;20033;-49
2023/12/05 10:03:33;;;;;;;6.15;2.05;;;;;;;;;;4999929;28;20026;-51
2023/12/05 10:06:01;;;;;;;4.80;1.60;;;;;;;;;;5011569;28;20044;-47
2023/12/05 10:08:27;;;;;;;7.95;2.25;;;;;;;;;;4993993;28;20053;-48
2023/12/05 10:10:54;;;;;;;2.75;1.35;;;;;;;;;;5005027;28;20035;-50
2023/12/05 10:13:20;;;;;;;4.28;1.10;;;;;;;;;;5003926;28;20049;-49
2023/12/05 10:15:46;;;;;;;3.85;1.50;;;;;;;;;;5002542;28;20512;-50
2023/12/05 10:18:12;;;;;;;5.93;2.28;;;;;;;;;;5000475;28;20044;-48
2023/12/05 10:20:38;;;;;;;5.50;1.42;;;;;;;;;;5003830;28;20566;-45
2023/12/05 10:23:03;;;;;;;2.58;1.60;;;;;;;;;;5006958;28;20038;-49
2023/12/05 10:25:29;;;;;;;3.15;2.38;;;;;;;;;;5006982;28;20088;-48
2023/12/05 10:28:06;;;;;;;4.30;2.38;;;;;;;;;;5016877;28;20034;-47
2023/12/05 10:30:33;;;;;;;5.20;1.92;;;;;;;;;;5000025;28;20048;-47
2023/12/05 10:33:13;;;;;;;4.40;1.08;;;;;;;;;;5005622;28;20033;-48
2023/12/05 10:35:41;;;;;;;2.85;2.45;;;;;;;;;;5006415;28;20139;-48
2023/12/05 10:38:14;;;;;;;3.88;1.73;;;;;;;;;;5003513;28;20108;-50
2023/12/05 10:41:06;;;;;;;4.40;1.58;;;;;;;;;;5009763;28;20493;-51
2023/12/05 10:43:32;;;;;;;4.93;2.22;;;;;;;;;;5007672;28;20065;-49
2023/12/05 10:45:57;;;;;;;5.32;1.98;;;;;;;;;;5010167;28;20080;-48
2023/12/05 10:48:23;;;;;;;4.43;3.83;;;;;;;;;;5001953;28;20400;-47
2023/12/05 10:50:51;;;;;;;3.22;1.42;;;;;;;;;;5014689;28;20065;-49
2023/12/05 10:53:17;;;;;;;5.70;2.65;;;;;;;;;;5012713;28;20025;-48
2023/12/05 10:55:43;;;;;;;4.07;3.45;;;;;;;;;;4999320;28;20408;-52
2023/12/05 10:58:09;;;;;;;2.53;2.15;;;;;;;;;;5005425;28;20116;-48
2023/12/05 11:00:39;;;;;;;5.82;3.22;;;;;;;;;;5004495;28;20058;-47
2023/12/05 11:03:05;;;;;;;5.25;4.35;;;;;;;;;;5006086;28;20424;-50
2023/12/05 11:05:32;;;;;;;3.45;2.40;;;;;;;;;;5008961;28;20037;-49
2023/12/05 11:07:58;;;;;;;6.40;3.97;;;;;;;;;;5000459;28;20479;-49
2023/12/05 11:10:28;;;;;;;2.10;1.52;;;;;;;;;;4998497;28;20034;-50
2023/12/05 11:12:58;;;;;;;2.83;2.13;;;;;;;;;;5006152;28;20037;-51
2023/12/05 11:15:44;;;;;;;5.60;3.90;;;;;;;;;;5007243;28;20156;-52
2023/12/05 11:18:31;;;;;;;3.65;2.05;;;;;;;;;;5003071;28;20124;-48
2023/12/05 11:21:33;;;;;;;3.03;2.78;;;;;;;;;;5006323;28;20382;-49
2023/12/05 11:24:10;;;;;;;4.40;2.65;;;;;;;;;;5006629;28;20022;-51
2023/12/05 11:26:49;;;;;;;3.10;1.73;;;;;;;;;;4999503;28;20042;-48
2023/12/05 11:29:17;;;;;;;5.70;2.47;;;;;;;;;;5012681;28;20120;-48
2023/12/05 11:32:03;;;;;;;3.15;2.00;;;;;;;;;;5006361;28;20034;-50
2023/12/05 11:34:56;;;;;;;4.40;2.20;;;;;;;;;;5001063;28;20040;-50
2023/12/05 11:37:51;;;;;;;4.03;1.58;;;;;;;;;;5012413;28;20056;-50
2023/12/05 11:40:17;;;;;;;4.80;1.88;;;;;;;;;;5003598;28;20038;-49
2023/12/05 11:43:09;;;;;;;4.03;2.30;;;;;;;;;;5006815;28;20049;-50
2023/12/05 11:45:44;;;;;;;5.65;3.30;;;;;;;;;;5004978;28;20052;-50
2023/12/05 11:48:11;;;;;;;;;;;;;;;;;;4997346;28;20484;-48
2023/12/05 11:50:40;;;;;;;4.13;1.35;;;;;;;;;;5005284;28;19924;-49
2023/12/05 11:53:08;;;;;;;3.28;2.08;;;;;;;;;;5003167;28;20042;-47
2023/12/05 11:55:34;;;;;;;5.82;2.60;;;;;;;;;;5011715;28;20046;-47
2023/12/05 11:57:59;;;;;;;4.10;2.60;;;;;;;;;;5008098;28;20084;-52
2023/12/05 12:00:26;;;;;;;4.10;1.88;;;;;;;;;;5003355;28;20068;-46
2023/12/05 12:02:57;;;;;;;4.40;2.97;;;;;;;;;;5004642;28;20026;-45
2023/12/05 12:05:22;;;;;;;4.40;1.25;;;;;;;;;;5007214;28;20030;-46
2023/12/05 12:07:56;;;;;;;2.38;1.50;;;;;;;;;;5011303;28;20032;-47
2023/12/05 12:10:23;;;;;;;5.32;1.65;;;;;;;;;;5005734;28;20049;-49
2023/12/05 12:12:50;;;;;;;4.47;1.60;;;;;;;;;;5010833;28;20049;-51
2023/12/05 12:15:16;;;;;;;2.22;1.92;;;;;;;;;;5009853;28;20092;-51
2023/12/05 12:17:45;;;;;;;4.35;1.92;;;;;;;;;;5012965;28;20446;-48
2023/12/05 12:20:15;;;;;;;2.55;1.50;;;;;;;;;;5007854;28;20069;-47
2023/12/05 12:22:48;;;;;;;3.70;1.92;;;;;;;;;;5004459;28;20441;-49
2023/12/05 12:25:13;;;;;;;4.93;1.45;;;;;;;;;;5002805;28;20047;-49
2023/12/05 12:27:42;;;;;;;7.95;2.55;;;;;;;;;;5003323;28;20383;-49
2023/12/05 12:30:08;;;;;;;3.63;1.30;;;;;;;;;;4991047;28;20038;-49
2023/12/05 12:32:35;;;;;;;3.67;1.65;;;;;;;;;;5001894;28;20046;-52
2023/12/05 12:35:01;;;;;;;3.60;1.80;;;;;;;;;;5006338;28;20072;-50
2023/12/05 12:37:28;;;;;;;2.85;0.98;;;;;;;;;;5004200;28;20176;-52
2023/12/05 12:39:53;;;;;;;4.53;2.08;;;;;;;;;;5005740;28;20030;-47
2023/12/05 12:42:19;;;;;;;5.25;0.90;;;;;;;;;;5006802;28;20103;-49
2023/12/05 12:44:44;;;;;;;2.65;1.33;;;;;;;;;;5005139;28;20036;-49
2023/12/05 12:47:15;;;;;;;3.92;1.30;;;;;;;;;;5000473;28;20720;-53
2023/12/05 12:49:41;;;;;;;5.95;1.60;;;;;;;;;;5007987;28;20058;-48
2023/12/05 12:52:06;;;;;;;5.80;1.50;;;;;;;;;;5004213;28;20058;-52
2023/12/05 12:54:33;;;;;;;4.97;2.92;;;;;;;;;;5005552;28;20032;-51
2023/12/05 12:56:59;;;;;;;4.55;2.67;;;;;;;;;;5004424;28;20033;-49
2023/12/05 12:59:24;;;;;;;6.70;6.15;;;;;;;;;;5006979;28;20552;-49
2023/12/05 13:01:50;;;;;;;6.68;1.55;;;;;;;;;;5006037;28;20045;-48
2023/12/05 13:04:16;;;;;;;5.82;2.30;;;;;;;;;;5003696;28;20117;-48
2023/12/05 13:06:46;;;;;;;5.53;3.55;;;;;;;;;;5005754;28;20543;-47
2023/12/05 13:09:15;;;;;;;7.72;3.15;;;;;;;;;;5001957;28;20037;-48
2023/12/05 13:11:45;;;;;;;4.57;1.88;;;;;;;;;;5003608;28;20034;-47
2023/12/05 13:14:12;;;;;;;3.40;1.40;;;;;;;;;;5008252;28;20026;-52
2023/12/05 13:16:42;;;;;;;5.85;3.17;;;;;;;;;;5000804;28;21995;-48
2023/12/05 13:19:29;;;;;;;9.27;5.20;;;;;;;;;;4996056;28;20026;-48
2023/12/05 13:21:54;;;;;;;6.13;3.28;;;;;;;;;;5001324;28;20194;-47
2023/12/05 13:24:21;;;;;;;6.50;5.90;;;;;;;;;;5006835;28;20572;-48
2023/12/05 13:26:47;;;;;;;4.63;2.47;;;;;;;;;;5010213;28;20042;-52
2023/12/05 13:29:15;;;;;;;6.50;2.40;;;;;;;;;;5000870;28;20030;-49
2023/12/05 13:31:41;;;;;;;4.25;3.75;;;;;;;;;;4997404;28;20117;-49
2023/12/05 13:34:07;;;;;;;4.15;3.38;;;;;;;;;;4999858;28;20062;-51
2023/12/05 13:36:33;;;;;;;2.88;2.50;;;;;;;;;;5005105;28;20042;-49
2023/12/05 13:38:59;;;;;;;3.72;1.58;;;;;;;;;;5002265;28;20057;-47
2023/12/05 13:41:24;;;;;;;4.38;1.73;;;;;;;;;;5002391;28;20065;-49
2023/12/05 13:43:50;;;;;;;3.40;1.65;;;;;;;;;;5005211;28;20022;-51
2023/12/05 13:46:16;;;;;;;5.93;2.33;;;;;;;;;;5014536;28;20061;-49
2023/12/05 13:48:44;;;;;;;8.77;3.55;;;;;;;;;;5001819;28;20427;-49
2023/12/05 13:51:09;;;;;;;6.18;5.63;;;;;;;;;;5002754;28;20408;-54
2023/12/05 13:53:35;;;;;;;3.75;3.40;;;;;;;;;;5009062;28;20172;-49
2023/12/05 13:56:01;;;;;;;4.45;2.22;;;;;;;;;;5006637;28;20053;-52
2023/12/05 13:58:27;;;;;;;3.90;1.98;;;;;;;;;;5004550;28;20413;-51
2023/12/05 14:00:52;;;;;;;3.28;1.48;;;;;;;;;;5007384;28;20036;-47
2023/12/05 14:03:17;;;;;;;3.00;1.60;;;;;;;;;;5010977;28;20026;-48
2023/12/05 14:05:43;;;;;;;3.97;1.83;;;;;;;;;;5007959;28;20089;-48
2023/12/05 14:08:08;;;;;;;2.58;1.50;;;;;;;;;;5010495;28;20515;-48
2023/12/05 14:10:35;;;;;;;4.03;1.55;;;;;;;;;;5010304;28;20038;-49
2023/12/05 14:13:00;;;;;;;3.97;2.58;;;;;;;;;;5007016;28;20034;-51
2023/12/05 14:15:26;;;;;;;3.47;1.42;;;;;;;;;;5004031;28;20038;-52
2023/12/05 14:17:52;;;;;;;1.98;1.65;;;;;;;;;;5008888;28;20030;-50
2023/12/05 14:20:17;;;;;;;3.30;1.45;;;;;;;;;;5010178;28;20068;-49
2023/12/05 14:22:43;;;;;;;3.38;2.28;;;;;;;;;;5007418;28;20026;-49
2023/12/05 14:25:09;;;;;;;8.93;5.25;;;;;;;;;;5005369;28;20052;-47
2023/12/05 14:27:35;;;;;;;2.45;1.80;;;;;;;;;;5009446;28;20033;-51
2023/12/05 14:30:00;;;;;;;2.10;1.35;;;;;;;;;;5013096;28;20826;-51
2023/12/05 14:32:26;;;;;;;4.82;1.83;;;;;;;;;;5007010;28;20113;-48
2023/12/05 14:34:51;;;;;;;3.60;2.40;;;;;;;;;;5002659;28;20058;-51
2023/12/05 14:37:18;;;;;;;5.22;2.60;;;;;;;;;;5003922;28;20026;-52
2023/12/05 14:39:44;;;;;;;2.67;2.15;;;;;;;;;;5007574;28;20033;-49
2023/12/05 14:42:10;;;;;;;4.03;2.50;;;;;;;;;;5010483;28;20146;-49